sensor_id;sensor_type;location;lat;lon;timestamp;P1;durP1;ratioP1;P2;durP2;ratioP2
51764;SDS011;37835;53.256;6.456;2023-03-23T00:01:13;4.20;;;2.58;;
51764;SDS011;37835;53.256;6.456;2023-03-23T00:03:45;6.05;;;2.63;;
51764;SDS011;37835;53.256;6.456;2023-03-23T00:06:15;8.90;;;2.40;;
51764;SDS011;37835;53.256;6.456;2023-03-23T00:08:45;4.10;;;2.75;;
51764;SDS011;37835;53.256;6.456;2023-03-23T00:11:12;3.55;;;3.15;;
51764;SDS011;37835;53.256;6.456;2023-03-23T00:13:45;5.90;;;3.80;;
51764;SDS011;37835;53.256;6.456;2023-03-23T00:16:12;5.85;;;4.40;;
51764;SDS011;37835;53.256;6.456;2023-03-23T00:21:17;6.53;;;5.35;;
51764;SDS011;37835;53.256;6.456;2023-03-23T00:23:43;8.18;;;5.70;;
51764;SDS011;37835;53.256;6.456;2023-03-23T00:26:10;8.05;;;6.25;;
51764;SDS011;37835;53.256;6.456;2023-03-23T00:28:36;8.55;;;6.40;;
51764;SDS011;37835;53.256;6.456;2023-03-23T00:31:05;7.68;;;5.80;;
51764;SDS011;37835;53.256;6.456;2023-03-23T00:33:33;5.85;;;5.35;;
51764;SDS011;37835;53.256;6.456;2023-03-23T00:36:06;7.15;;;5.60;;
51764;SDS011;37835;53.256;6.456;2023-03-23T00:38:36;6.57;;;5.20;;
51764;SDS011;37835;53.256;6.456;2023-03-23T00:41:04;6.00;;;5.40;;
51764;SDS011;37835;53.256;6.456;2023-03-23T00:43:31;7.30;;;6.63;;
51764;SDS011;37835;53.256;6.456;2023-03-23T00:46:00;10.25;;;7.38;;
51764;SDS011;37835;53.256;6.456;2023-03-23T00:48:27;8.32;;;7.55;;
51764;SDS011;37835;53.256;6.456;2023-03-23T00:50:54;9.45;;;8.40;;
51764;SDS011;37835;53.256;6.456;2023-03-23T00:53:20;11.15;;;9.43;;
51764;SDS011;37835;53.256;6.456;2023-03-23T00:55:47;13.45;;;11.77;;
51764;SDS011;37835;53.256;6.456;2023-03-23T00:58:13;17.02;;;13.68;;
51764;SDS011;37835;53.256;6.456;2023-03-23T01:00:40;17.38;;;15.23;;
51764;SDS011;37835;53.256;6.456;2023-03-23T01:03:06;18.05;;;15.70;;
51764;SDS011;37835;53.256;6.456;2023-03-23T01:05:37;20.13;;;15.25;;
51764;SDS011;37835;53.256;6.456;2023-03-23T01:08:03;18.42;;;15.60;;
51764;SDS011;37835;53.256;6.456;2023-03-23T01:10:30;17.00;;;13.80;;
51764;SDS011;37835;53.256;6.456;2023-03-23T01:13:00;11.98;;;9.48;;
51764;SDS011;37835;53.256;6.456;2023-03-23T01:15:26;12.80;;;8.68;;
51764;SDS011;37835;53.256;6.456;2023-03-23T01:17:52;9.82;;;8.30;;
51764;SDS011;37835;53.256;6.456;2023-03-23T01:20:18;8.27;;;7.25;;
51764;SDS011;37835;53.256;6.456;2023-03-23T01:22:44;8.57;;;5.88;;
51764;SDS011;37835;53.256;6.456;2023-03-23T01:25:10;7.38;;;5.03;;
51764;SDS011;37835;53.256;6.456;2023-03-23T01:27:37;6.25;;;4.35;;
51764;SDS011;37835;53.256;6.456;2023-03-23T01:30:04;5.72;;;4.15;;
51764;SDS011;37835;53.256;6.456;2023-03-23T01:32:31;6.15;;;3.67;;
51764;SDS011;37835;53.256;6.456;2023-03-23T01:34:57;5.35;;;3.67;;
51764;SDS011;37835;53.256;6.456;2023-03-23T01:37:23;5.93;;;3.35;;
51764;SDS011;37835;53.256;6.456;2023-03-23T01:39:51;6.82;;;3.90;;
51764;SDS011;37835;53.256;6.456;2023-03-23T01:42:22;5.07;;;4.57;;
51764;SDS011;37835;53.256;6.456;2023-03-23T01:47:39;9.52;;;5.88;;
51764;SDS011;37835;53.256;6.456;2023-03-23T01:50:05;10.95;;;6.95;;
51764;SDS011;37835;53.256;6.456;2023-03-23T01:52:31;11.55;;;7.38;;
51764;SDS011;37835;53.256;6.456;2023-03-23T01:54:58;12.05;;;8.45;;
51764;SDS011;37835;53.256;6.456;2023-03-23T01:57:25;14.82;;;8.70;;
51764;SDS011;37835;53.256;6.456;2023-03-23T01:59:52;12.98;;;8.73;;
51764;SDS011;37835;53.256;6.456;2023-03-23T02:02:20;11.00;;;8.75;;
51764;SDS011;37835;53.256;6.456;2023-03-23T02:04:47;16.13;;;8.77;;
51764;SDS011;37835;53.256;6.456;2023-03-23T02:07:14;11.60;;;8.02;;
51764;SDS011;37835;53.256;6.456;2023-03-23T02:09:42;12.18;;;8.52;;
51764;SDS011;37835;53.256;6.456;2023-03-23T02:12:07;12.45;;;8.40;;
51764;SDS011;37835;53.256;6.456;2023-03-23T02:14:33;12.02;;;8.10;;
51764;SDS011;37835;53.256;6.456;2023-03-23T02:25:22;11.00;;;6.97;;
51764;SDS011;37835;53.256;6.456;2023-03-23T02:33:43;12.48;;;7.53;;
51764;SDS011;37835;53.256;6.456;2023-03-23T02:39:08;12.15;;;7.05;;
51764;SDS011;37835;53.256;6.456;2023-03-23T02:41:47;11.65;;;6.70;;
51764;SDS011;37835;53.256;6.456;2023-03-23T02:44:19;12.48;;;6.05;;
51764;SDS011;37835;53.256;6.456;2023-03-23T02:46:47;8.70;;;6.28;;
51764;SDS011;37835;53.256;6.456;2023-03-23T02:49:14;13.10;;;6.97;;
51764;SDS011;37835;53.256;6.456;2023-03-23T02:51:43;12.48;;;6.35;;
51764;SDS011;37835;53.256;6.456;2023-03-23T02:54:11;11.38;;;6.18;;
51764;SDS011;37835;53.256;6.456;2023-03-23T02:56:38;9.10;;;5.97;;
51764;SDS011;37835;53.256;6.456;2023-03-23T02:59:05;12.27;;;5.70;;
51764;SDS011;37835;53.256;6.456;2023-03-23T03:04:03;10.63;;;5.65;;
51764;SDS011;37835;53.256;6.456;2023-03-23T03:06:52;9.23;;;5.25;;
51764;SDS011;37835;53.256;6.456;2023-03-23T03:12:32;11.32;;;5.70;;
51764;SDS011;37835;53.256;6.456;2023-03-23T03:17:37;11.85;;;5.60;;
51764;SDS011;37835;53.256;6.456;2023-03-23T03:20:08;13.45;;;5.65;;
51764;SDS011;37835;53.256;6.456;2023-03-23T03:22:38;12.38;;;5.07;;
51764;SDS011;37835;53.256;6.456;2023-03-23T03:25:09;8.57;;;5.47;;
51764;SDS011;37835;53.256;6.456;2023-03-23T03:27:40;5.95;;;5.35;;
51764;SDS011;37835;53.256;6.456;2023-03-23T03:30:11;9.63;;;5.72;;
51764;SDS011;37835;53.256;6.456;2023-03-23T03:32:43;7.25;;;5.18;;
51764;SDS011;37835;53.256;6.456;2023-03-23T03:35:14;8.25;;;4.97;;
51764;SDS011;37835;53.256;6.456;2023-03-23T03:37:40;7.22;;;5.13;;
51764;SDS011;37835;53.256;6.456;2023-03-23T03:40:08;9.57;;;5.72;;
51764;SDS011;37835;53.256;6.456;2023-03-23T03:42:39;8.07;;;5.05;;
51764;SDS011;37835;53.256;6.456;2023-03-23T03:45:07;10.98;;;5.18;;
51764;SDS011;37835;53.256;6.456;2023-03-23T03:47:33;7.65;;;4.97;;
51764;SDS011;37835;53.256;6.456;2023-03-23T03:49:59;7.93;;;4.93;;
51764;SDS011;37835;53.256;6.456;2023-03-23T03:52:25;9.35;;;4.55;;
51764;SDS011;37835;53.256;6.456;2023-03-23T03:54:52;11.50;;;5.03;;
51764;SDS011;37835;53.256;6.456;2023-03-23T03:57:18;11.63;;;4.90;;
51764;SDS011;37835;53.256;6.456;2023-03-23T03:59:44;7.97;;;5.10;;
51764;SDS011;37835;53.256;6.456;2023-03-23T04:02:10;12.82;;;5.30;;
51764;SDS011;37835;53.256;6.456;2023-03-23T04:04:39;8.90;;;5.40;;
51764;SDS011;37835;53.256;6.456;2023-03-23T04:07:06;7.43;;;4.93;;
51764;SDS011;37835;53.256;6.456;2023-03-23T04:09:32;6.45;;;4.88;;
51764;SDS011;37835;53.256;6.456;2023-03-23T04:11:57;8.98;;;5.25;;
51764;SDS011;37835;53.256;6.456;2023-03-23T04:14:23;7.03;;;4.30;;
51764;SDS011;37835;53.256;6.456;2023-03-23T04:16:48;6.70;;;3.72;;
51764;SDS011;37835;53.256;6.456;2023-03-23T04:19:16;6.95;;;3.38;;
51764;SDS011;37835;53.256;6.456;2023-03-23T04:21:43;6.95;;;3.38;;
51764;SDS011;37835;53.256;6.456;2023-03-23T04:24:10;8.95;;;3.58;;
51764;SDS011;37835;53.256;6.456;2023-03-23T04:26:36;9.77;;;3.25;;
51764;SDS011;37835;53.256;6.456;2023-03-23T04:29:05;8.13;;;2.85;;
51764;SDS011;37835;53.256;6.456;2023-03-23T04:31:30;5.03;;;2.78;;
51764;SDS011;37835;53.256;6.456;2023-03-23T04:33:56;7.68;;;2.97;;
51764;SDS011;37835;53.256;6.456;2023-03-23T04:36:24;6.75;;;3.00;;
51764;SDS011;37835;53.256;6.456;2023-03-23T04:38:50;5.50;;;2.80;;
51764;SDS011;37835;53.256;6.456;2023-03-23T04:41:19;8.10;;;3.25;;
51764;SDS011;37835;53.256;6.456;2023-03-23T04:43:46;7.05;;;2.40;;
51764;SDS011;37835;53.256;6.456;2023-03-23T04:46:17;6.43;;;2.30;;
51764;SDS011;37835;53.256;6.456;2023-03-23T04:48:44;5.97;;;1.90;;
51764;SDS011;37835;53.256;6.456;2023-03-23T04:51:10;8.45;;;2.28;;
51764;SDS011;37835;53.256;6.456;2023-03-23T04:53:37;8.25;;;2.42;;
51764;SDS011;37835;53.256;6.456;2023-03-23T04:56:03;4.78;;;2.20;;
51764;SDS011;37835;53.256;6.456;2023-03-23T04:58:29;4.13;;;1.95;;
51764;SDS011;37835;53.256;6.456;2023-03-23T05:00:58;8.07;;;2.20;;
51764;SDS011;37835;53.256;6.456;2023-03-23T05:03:25;5.63;;;2.40;;
51764;SDS011;37835;53.256;6.456;2023-03-23T05:05:52;10.90;;;2.38;;
51764;SDS011;37835;53.256;6.456;2023-03-23T05:08:21;9.07;;;2.17;;
51764;SDS011;37835;53.256;6.456;2023-03-23T05:10:53;7.55;;;2.28;;
51764;SDS011;37835;53.256;6.456;2023-03-23T05:13:20;7.95;;;2.08;;
51764;SDS011;37835;53.256;6.456;2023-03-23T05:15:47;8.98;;;2.50;;
51764;SDS011;37835;53.256;6.456;2023-03-23T05:18:12;11.63;;;2.80;;
51764;SDS011;37835;53.256;6.456;2023-03-23T05:20:38;11.10;;;2.75;;
51764;SDS011;37835;53.256;6.456;2023-03-23T05:23:04;14.13;;;3.10;;
51764;SDS011;37835;53.256;6.456;2023-03-23T05:25:30;10.40;;;2.88;;
51764;SDS011;37835;53.256;6.456;2023-03-23T05:28:01;12.60;;;3.10;;
51764;SDS011;37835;53.256;6.456;2023-03-23T05:30:27;10.07;;;3.40;;
51764;SDS011;37835;53.256;6.456;2023-03-23T05:32:53;12.73;;;3.17;;
51764;SDS011;37835;53.256;6.456;2023-03-23T05:35:19;12.82;;;3.33;;
51764;SDS011;37835;53.256;6.456;2023-03-23T05:37:45;17.10;;;3.75;;
51764;SDS011;37835;53.256;6.456;2023-03-23T05:40:11;14.48;;;3.80;;
51764;SDS011;37835;53.256;6.456;2023-03-23T05:42:38;18.30;;;3.13;;
51764;SDS011;37835;53.256;6.456;2023-03-23T05:45:06;18.02;;;3.75;;
51764;SDS011;37835;53.256;6.456;2023-03-23T05:47:33;21.27;;;3.80;;
51764;SDS011;37835;53.256;6.456;2023-03-23T05:49:59;17.83;;;3.05;;
51764;SDS011;37835;53.256;6.456;2023-03-23T05:52:25;21.33;;;3.83;;
51764;SDS011;37835;53.256;6.456;2023-03-23T05:54:52;22.65;;;3.85;;
51764;SDS011;37835;53.256;6.456;2023-03-23T05:57:18;22.80;;;4.13;;
51764;SDS011;37835;53.256;6.456;2023-03-23T05:59:46;20.70;;;4.03;;
51764;SDS011;37835;53.256;6.456;2023-03-23T06:02:12;21.90;;;4.13;;
51764;SDS011;37835;53.256;6.456;2023-03-23T06:04:39;23.80;;;4.80;;
51764;SDS011;37835;53.256;6.456;2023-03-23T06:07:05;22.10;;;3.70;;
51764;SDS011;37835;53.256;6.456;2023-03-23T06:09:32;22.05;;;4.03;;
51764;SDS011;37835;53.256;6.456;2023-03-23T06:11:57;26.15;;;4.15;;
51764;SDS011;37835;53.256;6.456;2023-03-23T06:14:23;26.83;;;3.85;;
51764;SDS011;37835;53.256;6.456;2023-03-23T06:16:48;25.50;;;3.70;;
51764;SDS011;37835;53.256;6.456;2023-03-23T06:19:14;28.50;;;4.40;;
51764;SDS011;37835;53.256;6.456;2023-03-23T06:21:40;24.85;;;5.25;;
51764;SDS011;37835;53.256;6.456;2023-03-23T06:24:07;27.60;;;3.92;;
51764;SDS011;37835;53.256;6.456;2023-03-23T06:26:34;26.90;;;4.28;;
51764;SDS011;37835;53.256;6.456;2023-03-23T06:29:03;20.27;;;4.05;;
51764;SDS011;37835;53.256;6.456;2023-03-23T06:31:36;26.58;;;4.53;;
51764;SDS011;37835;53.256;6.456;2023-03-23T06:34:04;19.00;;;3.05;;
51764;SDS011;37835;53.256;6.456;2023-03-23T06:36:29;17.02;;;3.10;;
51764;SDS011;37835;53.256;6.456;2023-03-23T06:38:55;19.77;;;3.53;;
51764;SDS011;37835;53.256;6.456;2023-03-23T06:41:21;22.20;;;4.80;;
51764;SDS011;37835;53.256;6.456;2023-03-23T06:43:47;15.57;;;2.80;;
51764;SDS011;37835;53.256;6.456;2023-03-23T06:46:12;18.52;;;2.88;;
51764;SDS011;37835;53.256;6.456;2023-03-23T06:48:38;11.23;;;1.80;;
51764;SDS011;37835;53.256;6.456;2023-03-23T06:51:04;16.58;;;2.35;;
51764;SDS011;37835;53.256;6.456;2023-03-23T06:53:30;13.85;;;1.83;;
51764;SDS011;37835;53.256;6.456;2023-03-23T06:55:56;15.13;;;2.35;;
51764;SDS011;37835;53.256;6.456;2023-03-23T06:58:22;12.65;;;2.15;;
51764;SDS011;37835;53.256;6.456;2023-03-23T07:00:55;9.88;;;2.33;;
51764;SDS011;37835;53.256;6.456;2023-03-23T07:03:22;10.13;;;1.85;;
51764;SDS011;37835;53.256;6.456;2023-03-23T07:05:48;8.40;;;1.63;;
51764;SDS011;37835;53.256;6.456;2023-03-23T07:08:15;10.50;;;2.42;;
51764;SDS011;37835;53.256;6.456;2023-03-23T07:10:41;12.50;;;2.10;;
51764;SDS011;37835;53.256;6.456;2023-03-23T07:13:07;15.45;;;2.20;;
51764;SDS011;37835;53.256;6.456;2023-03-23T07:15:32;17.73;;;2.63;;
51764;SDS011;37835;53.256;6.456;2023-03-23T07:17:58;11.95;;;2.45;;
51764;SDS011;37835;53.256;6.456;2023-03-23T07:20:24;16.05;;;2.70;;
51764;SDS011;37835;53.256;6.456;2023-03-23T07:22:49;20.58;;;3.78;;
51764;SDS011;37835;53.256;6.456;2023-03-23T07:25:16;19.45;;;3.15;;
51764;SDS011;37835;53.256;6.456;2023-03-23T07:27:43;18.83;;;3.20;;
51764;SDS011;37835;53.256;6.456;2023-03-23T07:30:10;23.23;;;4.13;;
51764;SDS011;37835;53.256;6.456;2023-03-23T07:32:37;21.02;;;4.20;;
51764;SDS011;37835;53.256;6.456;2023-03-23T07:35:02;27.23;;;4.10;;
51764;SDS011;37835;53.256;6.456;2023-03-23T07:37:28;27.35;;;5.22;;
51764;SDS011;37835;53.256;6.456;2023-03-23T07:39:54;22.67;;;4.28;;
51764;SDS011;37835;53.256;6.456;2023-03-23T07:42:20;21.88;;;4.20;;
51764;SDS011;37835;53.256;6.456;2023-03-23T07:44:46;28.90;;;4.88;;
51764;SDS011;37835;53.256;6.456;2023-03-23T07:47:11;23.75;;;5.10;;
51764;SDS011;37835;53.256;6.456;2023-03-23T07:49:37;34.33;;;6.55;;
51764;SDS011;37835;53.256;6.456;2023-03-23T07:52:02;33.35;;;4.78;;
51764;SDS011;37835;53.256;6.456;2023-03-23T07:54:29;34.10;;;4.95;;
51764;SDS011;37835;53.256;6.456;2023-03-23T07:56:55;30.25;;;6.18;;
51764;SDS011;37835;53.256;6.456;2023-03-23T07:59:20;39.30;;;5.22;;
51764;SDS011;37835;53.256;6.456;2023-03-23T08:01:46;32.50;;;5.45;;
51764;SDS011;37835;53.256;6.456;2023-03-23T08:04:12;30.55;;;5.05;;
51764;SDS011;37835;53.256;6.456;2023-03-23T08:06:38;31.55;;;4.95;;
51764;SDS011;37835;53.256;6.456;2023-03-23T08:09:04;33.55;;;4.50;;
51764;SDS011;37835;53.256;6.456;2023-03-23T08:11:37;31.92;;;5.53;;
51764;SDS011;37835;53.256;6.456;2023-03-23T08:14:03;36.03;;;5.65;;
51764;SDS011;37835;53.256;6.456;2023-03-23T08:16:30;37.10;;;6.32;;
51764;SDS011;37835;53.256;6.456;2023-03-23T08:18:56;38.55;;;5.40;;
51764;SDS011;37835;53.256;6.456;2023-03-23T08:21:22;36.50;;;5.55;;
51764;SDS011;37835;53.256;6.456;2023-03-23T08:23:48;28.40;;;4.95;;
51764;SDS011;37835;53.256;6.456;2023-03-23T08:26:14;31.05;;;5.82;;
51764;SDS011;37835;53.256;6.456;2023-03-23T08:28:42;28.75;;;5.53;;
51764;SDS011;37835;53.256;6.456;2023-03-23T08:31:12;31.58;;;5.38;;
51764;SDS011;37835;53.256;6.456;2023-03-23T08:33:39;36.80;;;6.35;;
51764;SDS011;37835;53.256;6.456;2023-03-23T08:36:06;31.17;;;5.13;;
51764;SDS011;37835;53.256;6.456;2023-03-23T08:38:34;33.10;;;5.82;;
51764;SDS011;37835;53.256;6.456;2023-03-23T08:41:00;31.23;;;4.50;;
51764;SDS011;37835;53.256;6.456;2023-03-23T08:43:28;37.45;;;4.95;;
51764;SDS011;37835;53.256;6.456;2023-03-23T08:45:54;29.25;;;5.07;;
51764;SDS011;37835;53.256;6.456;2023-03-23T08:48:20;33.47;;;5.93;;
51764;SDS011;37835;53.256;6.456;2023-03-23T08:50:47;29.65;;;5.25;;
51764;SDS011;37835;53.256;6.456;2023-03-23T08:53:13;25.70;;;5.35;;
51764;SDS011;37835;53.256;6.456;2023-03-23T08:55:39;33.05;;;5.63;;
51764;SDS011;37835;53.256;6.456;2023-03-23T08:58:05;33.30;;;5.50;;
51764;SDS011;37835;53.256;6.456;2023-03-23T09:00:31;34.63;;;6.65;;
51764;SDS011;37835;53.256;6.456;2023-03-23T09:02:57;34.63;;;5.90;;
51764;SDS011;37835;53.256;6.456;2023-03-23T09:05:24;36.22;;;5.40;;
51764;SDS011;37835;53.256;6.456;2023-03-23T09:07:52;32.72;;;5.50;;
51764;SDS011;37835;53.256;6.456;2023-03-23T09:10:20;31.17;;;5.00;;
51764;SDS011;37835;53.256;6.456;2023-03-23T09:12:48;35.58;;;5.28;;
51764;SDS011;37835;53.256;6.456;2023-03-23T09:15:15;29.98;;;5.95;;
51764;SDS011;37835;53.256;6.456;2023-03-23T09:17:43;32.80;;;6.57;;
51764;SDS011;37835;53.256;6.456;2023-03-23T09:20:10;32.03;;;5.45;;
51764;SDS011;37835;53.256;6.456;2023-03-23T09:22:39;37.03;;;5.95;;
51764;SDS011;37835;53.256;6.456;2023-03-23T09:25:06;30.58;;;5.47;;
51764;SDS011;37835;53.256;6.456;2023-03-23T09:27:34;25.05;;;4.85;;
51764;SDS011;37835;53.256;6.456;2023-03-23T09:30:02;33.80;;;6.03;;
51764;SDS011;37835;53.256;6.456;2023-03-23T09:32:31;28.83;;;5.65;;
51764;SDS011;37835;53.256;6.456;2023-03-23T09:34:59;26.00;;;5.28;;
51764;SDS011;37835;53.256;6.456;2023-03-23T09:37:26;29.27;;;5.25;;
51764;SDS011;37835;53.256;6.456;2023-03-23T09:39:51;36.95;;;6.20;;
51764;SDS011;37835;53.256;6.456;2023-03-23T09:45:21;22.55;;;5.13;;
51764;SDS011;37835;53.256;6.456;2023-03-23T09:53:38;41.75;;;5.68;;
51764;SDS011;37835;53.256;6.456;2023-03-23T09:56:12;27.40;;;4.57;;
51764;SDS011;37835;53.256;6.456;2023-03-23T10:01:20;22.33;;;5.57;;
51764;SDS011;37835;53.256;6.456;2023-03-23T10:03:52;27.52;;;5.40;;
51764;SDS011;37835;53.256;6.456;2023-03-23T10:06:36;36.13;;;6.00;;
51764;SDS011;37835;53.256;6.456;2023-03-23T10:09:02;31.52;;;5.32;;
51764;SDS011;37835;53.256;6.456;2023-03-23T10:19:53;30.35;;;5.35;;
51764;SDS011;37835;53.256;6.456;2023-03-23T10:22:53;17.77;;;4.07;;
51764;SDS011;37835;53.256;6.456;2023-03-23T10:25:36;26.63;;;4.70;;
51764;SDS011;37835;53.256;6.456;2023-03-23T10:30:39;29.48;;;3.97;;
51764;SDS011;37835;53.256;6.456;2023-03-23T10:33:15;24.13;;;4.70;;
51764;SDS011;37835;53.256;6.456;2023-03-23T10:39:18;29.38;;;4.68;;
51764;SDS011;37835;53.256;6.456;2023-03-23T10:41:19;21.67;;;3.95;;
51764;SDS011;37835;53.256;6.456;2023-03-23T10:43:46;24.08;;;4.75;;
51764;SDS011;37835;53.256;6.456;2023-03-23T10:48:54;24.88;;;5.35;;
51764;SDS011;37835;53.256;6.456;2023-03-23T10:51:27;24.05;;;4.25;;
51764;SDS011;37835;53.256;6.456;2023-03-23T10:54:05;30.77;;;5.40;;
51764;SDS011;37835;53.256;6.456;2023-03-23T10:56:39;35.63;;;5.43;;
51764;SDS011;37835;53.256;6.456;2023-03-23T10:59:17;26.20;;;4.88;;
51764;SDS011;37835;53.256;6.456;2023-03-23T11:01:52;25.17;;;3.90;;
51764;SDS011;37835;53.256;6.456;2023-03-23T11:04:19;26.73;;;4.13;;
51764;SDS011;37835;53.256;6.456;2023-03-23T11:06:54;21.13;;;3.67;;
51764;SDS011;37835;53.256;6.456;2023-03-23T11:09:39;25.08;;;4.47;;
51764;SDS011;37835;53.256;6.456;2023-03-23T11:12:19;20.08;;;4.43;;
51764;SDS011;37835;53.256;6.456;2023-03-23T11:14:46;22.92;;;4.35;;
51764;SDS011;37835;53.256;6.456;2023-03-23T11:17:23;22.27;;;4.35;;
51764;SDS011;37835;53.256;6.456;2023-03-23T11:19:51;21.50;;;3.80;;
51764;SDS011;37835;53.256;6.456;2023-03-23T11:27:21;17.25;;;3.03;;
51764;SDS011;37835;53.256;6.456;2023-03-23T11:29:53;12.10;;;3.00;;
51764;SDS011;37835;53.256;6.456;2023-03-23T11:32:26;18.92;;;3.75;;
51764;SDS011;37835;53.256;6.456;2023-03-23T11:34:56;17.35;;;3.60;;
51764;SDS011;37835;53.256;6.456;2023-03-23T11:37:43;16.25;;;4.07;;
51764;SDS011;37835;53.256;6.456;2023-03-23T11:40:17;22.38;;;3.70;;
51764;SDS011;37835;53.256;6.456;2023-03-23T11:53:33;20.40;;;4.38;;
51764;SDS011;37835;53.256;6.456;2023-03-23T11:56:23;15.43;;;3.03;;
51764;SDS011;37835;53.256;6.456;2023-03-23T11:58:49;18.95;;;3.10;;
51764;SDS011;37835;53.256;6.456;2023-03-23T12:07:07;18.80;;;4.13;;
51764;SDS011;37835;53.256;6.456;2023-03-23T12:12:32;16.73;;;3.45;;
51764;SDS011;37835;53.256;6.456;2023-03-23T12:15:18;16.57;;;2.87;;
51764;SDS011;37835;53.256;6.456;2023-03-23T12:23:25;13.90;;;2.45;;
51764;SDS011;37835;53.256;6.456;2023-03-23T12:29:17;16.50;;;2.75;;
51764;SDS011;37835;53.256;6.456;2023-03-23T12:32:13;16.63;;;3.42;;
51764;SDS011;37835;53.256;6.456;2023-03-23T12:34:58;16.20;;;3.28;;
51764;SDS011;37835;53.256;6.456;2023-03-23T12:43:13;13.25;;;2.88;;
51764;SDS011;37835;53.256;6.456;2023-03-23T12:48:36;16.95;;;2.85;;
51764;SDS011;37835;53.256;6.456;2023-03-23T12:56:47;13.07;;;2.50;;
51764;SDS011;37835;53.256;6.456;2023-03-23T12:59:36;17.98;;;3.15;;
51764;SDS011;37835;53.256;6.456;2023-03-23T13:04:59;12.57;;;3.03;;
51764;SDS011;37835;53.256;6.456;2023-03-23T13:07:45;16.13;;;3.47;;
51764;SDS011;37835;53.256;6.456;2023-03-23T13:12:44;18.33;;;3.05;;
51764;SDS011;37835;53.256;6.456;2023-03-23T13:18:24;18.25;;;2.83;;
51764;SDS011;37835;53.256;6.456;2023-03-23T13:21:11;12.48;;;3.05;;
51764;SDS011;37835;53.256;6.456;2023-03-23T13:23:48;23.50;;;3.83;;
51764;SDS011;37835;53.256;6.456;2023-03-23T13:26:19;16.92;;;3.08;;
51764;SDS011;37835;53.256;6.456;2023-03-23T13:28:51;18.15;;;3.28;;
51764;SDS011;37835;53.256;6.456;2023-03-23T13:31:33;21.88;;;3.45;;
51764;SDS011;37835;53.256;6.456;2023-03-23T13:36:39;18.90;;;3.55;;
51764;SDS011;37835;53.256;6.456;2023-03-23T13:39:18;16.85;;;3.38;;
51764;SDS011;37835;53.256;6.456;2023-03-23T13:41:46;20.67;;;3.95;;
51764;SDS011;37835;53.256;6.456;2023-03-23T13:44:19;22.05;;;3.80;;
51764;SDS011;37835;53.256;6.456;2023-03-23T13:46:56;22.10;;;3.53;;
51764;SDS011;37835;53.256;6.456;2023-03-23T13:49:31;19.73;;;3.75;;
51764;SDS011;37835;53.256;6.456;2023-03-23T13:52:06;19.13;;;3.35;;
51764;SDS011;37835;53.256;6.456;2023-03-23T13:54:47;25.85;;;3.85;;
51764;SDS011;37835;53.256;6.456;2023-03-23T14:03:05;15.20;;;3.20;;
51764;SDS011;37835;53.256;6.456;2023-03-23T14:13:15;19.67;;;3.75;;
51764;SDS011;37835;53.256;6.456;2023-03-23T14:15:54;19.77;;;3.30;;
51764;SDS011;37835;53.256;6.456;2023-03-23T14:18:22;15.23;;;3.63;;
51764;SDS011;37835;53.256;6.456;2023-03-23T14:20:51;22.35;;;3.35;;
51764;SDS011;37835;53.256;6.456;2023-03-23T14:23:18;18.40;;;3.55;;
51764;SDS011;37835;53.256;6.456;2023-03-23T14:25:44;19.63;;;3.60;;
51764;SDS011;37835;53.256;6.456;2023-03-23T14:28:19;20.30;;;3.35;;
51764;SDS011;37835;53.256;6.456;2023-03-23T14:30:47;19.15;;;3.13;;
51764;SDS011;37835;53.256;6.456;2023-03-23T14:33:17;23.23;;;3.85;;
51764;SDS011;37835;53.256;6.456;2023-03-23T14:35:45;18.88;;;3.33;;
51764;SDS011;37835;53.256;6.456;2023-03-23T14:38:17;12.95;;;3.30;;
51764;SDS011;37835;53.256;6.456;2023-03-23T14:40:46;23.40;;;3.53;;
51764;SDS011;37835;53.256;6.456;2023-03-23T14:43:14;11.10;;;2.85;;
51764;SDS011;37835;53.256;6.456;2023-03-23T14:45:42;19.02;;;3.75;;
51764;SDS011;37835;53.256;6.456;2023-03-23T14:48:09;10.70;;;2.42;;
51764;SDS011;37835;53.256;6.456;2023-03-23T14:50:57;12.30;;;2.88;;
51764;SDS011;37835;53.256;6.456;2023-03-23T14:55:59;13.68;;;2.72;;
51764;SDS011;37835;53.256;6.456;2023-03-23T14:58:35;12.82;;;2.25;;
51764;SDS011;37835;53.256;6.456;2023-03-23T15:01:02;13.57;;;2.45;;
51764;SDS011;37835;53.256;6.456;2023-03-23T15:03:35;17.00;;;2.80;;
51764;SDS011;37835;53.256;6.456;2023-03-23T15:06:05;10.35;;;2.30;;
51764;SDS011;37835;53.256;6.456;2023-03-23T15:08:36;15.05;;;2.45;;
51764;SDS011;37835;53.256;6.456;2023-03-23T15:11:06;14.93;;;2.92;;
51764;SDS011;37835;53.256;6.456;2023-03-23T15:13:50;8.07;;;2.13;;
51764;SDS011;37835;53.256;6.456;2023-03-23T15:16:26;12.90;;;2.72;;
51764;SDS011;37835;53.256;6.456;2023-03-23T15:18:59;14.88;;;2.85;;
51764;SDS011;37835;53.256;6.456;2023-03-23T15:24:48;12.33;;;2.60;;
51764;SDS011;37835;53.256;6.456;2023-03-23T15:32:23;12.13;;;2.08;;
51764;SDS011;37835;53.256;6.456;2023-03-23T15:34:51;14.65;;;2.88;;
51764;SDS011;37835;53.256;6.456;2023-03-23T15:37:26;12.07;;;2.25;;
51764;SDS011;37835;53.256;6.456;2023-03-23T15:39:53;14.77;;;2.85;;
51764;SDS011;37835;53.256;6.456;2023-03-23T15:42:28;10.60;;;1.90;;
51764;SDS011;37835;53.256;6.456;2023-03-23T15:50:15;9.13;;;1.60;;
51764;SDS011;37835;53.256;6.456;2023-03-23T15:52:46;10.90;;;2.28;;
51764;SDS011;37835;53.256;6.456;2023-03-23T15:57:55;13.57;;;2.42;;
51764;SDS011;37835;53.256;6.456;2023-03-23T16:00:23;8.65;;;1.85;;
51764;SDS011;37835;53.256;6.456;2023-03-23T16:03:01;11.20;;;2.20;;
51764;SDS011;37835;53.256;6.456;2023-03-23T16:05:30;10.07;;;2.10;;
51764;SDS011;37835;53.256;6.456;2023-03-23T16:07:56;15.95;;;2.97;;
51764;SDS011;37835;53.256;6.456;2023-03-23T16:10:22;19.83;;;3.53;;
51764;SDS011;37835;53.256;6.456;2023-03-23T16:12:49;19.90;;;3.28;;
51764;SDS011;37835;53.256;6.456;2023-03-23T16:15:15;11.60;;;2.83;;
51764;SDS011;37835;53.256;6.456;2023-03-23T16:17:41;20.30;;;3.20;;
51764;SDS011;37835;53.256;6.456;2023-03-23T16:20:14;15.85;;;2.80;;
51764;SDS011;37835;53.256;6.456;2023-03-23T16:22:43;18.15;;;3.50;;
51764;SDS011;37835;53.256;6.456;2023-03-23T16:25:09;21.02;;;3.58;;
51764;SDS011;37835;53.256;6.456;2023-03-23T16:27:36;21.63;;;3.80;;
51764;SDS011;37835;53.256;6.456;2023-03-23T16:30:16;17.27;;;2.95;;
51764;SDS011;37835;53.256;6.456;2023-03-23T16:32:47;15.65;;;3.58;;
51764;SDS011;37835;53.256;6.456;2023-03-23T16:35:13;18.67;;;2.75;;
51764;SDS011;37835;53.256;6.456;2023-03-23T16:37:46;18.65;;;3.58;;
51764;SDS011;37835;53.256;6.456;2023-03-23T16:40:15;23.45;;;3.65;;
51764;SDS011;37835;53.256;6.456;2023-03-23T16:42:41;22.83;;;3.30;;
51764;SDS011;37835;53.256;6.456;2023-03-23T16:45:07;17.70;;;3.22;;
51764;SDS011;37835;53.256;6.456;2023-03-23T16:47:34;17.08;;;3.60;;
51764;SDS011;37835;53.256;6.456;2023-03-23T16:50:00;16.02;;;3.25;;
51764;SDS011;37835;53.256;6.456;2023-03-23T16:52:26;21.52;;;3.72;;
51764;SDS011;37835;53.256;6.456;2023-03-23T16:54:51;17.20;;;3.67;;
51764;SDS011;37835;53.256;6.456;2023-03-23T16:57:17;21.65;;;3.97;;
51764;SDS011;37835;53.256;6.456;2023-03-23T16:59:43;12.20;;;3.00;;
51764;SDS011;37835;53.256;6.456;2023-03-23T17:02:09;19.83;;;3.83;;
51764;SDS011;37835;53.256;6.456;2023-03-23T17:04:36;23.73;;;4.43;;
51764;SDS011;37835;53.256;6.456;2023-03-23T17:07:06;16.40;;;3.67;;
51764;SDS011;37835;53.256;6.456;2023-03-23T17:09:32;19.38;;;3.88;;
51764;SDS011;37835;53.256;6.456;2023-03-23T17:11:58;22.83;;;4.13;;
51764;SDS011;37835;53.256;6.456;2023-03-23T17:14:23;18.77;;;3.83;;
51764;SDS011;37835;53.256;6.456;2023-03-23T17:16:49;21.65;;;3.83;;
51764;SDS011;37835;53.256;6.456;2023-03-23T17:19:14;23.95;;;4.03;;